createdAt,value
2019-02-07T00:00:22.338Z,69.63
2019-02-07T00:02:54.861Z,35.53
2019-02-07T00:05:28.259Z,41.80
2019-02-07T00:08:07.805Z,152.40
2019-02-07T00:10:34.874Z,95.40
2019-02-07T00:13:04.469Z,69.37
2019-02-07T00:15:36.636Z,112.53
2019-02-07T00:18:06.228Z,76.17
2019-02-07T00:20:36.332Z,49.00
2019-02-07T00:23:07.110Z,80.47
2019-02-07T00:25:38.978Z,63.07
2019-02-07T00:28:08.397Z,52.03
2019-02-07T00:30:38.114Z,49.47
2019-02-07T00:33:11.470Z,49.87
2019-02-07T00:35:40.858Z,49.43
2019-02-07T00:38:12.095Z,46.67
2019-02-07T00:40:41.469Z,44.43
2019-02-07T00:43:15.670Z,41.80
2019-02-07T00:45:50.789Z,45.20
2019-02-07T00:48:26.274Z,44.53
2019-02-07T00:50:55.685Z,49.80
2019-02-07T00:53:24.979Z,39.33
2019-02-07T00:55:56.041Z,46.43
2019-02-07T00:58:25.351Z,44.63
2019-02-07T01:00:56.989Z,49.77
2019-02-07T01:03:32.782Z,54.40
2019-02-07T01:06:05.147Z,53.13
2019-02-07T01:08:34.557Z,42.53
2019-02-07T01:11:03.964Z,54.10
2019-02-07T01:13:33.395Z,51.07
2019-02-07T01:16:05.980Z,43.27
2019-02-07T01:18:35.372Z,48.33
2019-02-07T01:21:07.051Z,51.93
2019-02-07T01:23:37.446Z,38.70
2019-02-07T01:26:06.869Z,46.40
2019-02-07T01:28:36.329Z,50.37
2019-02-07T01:31:12.661Z,44.90
2019-02-07T01:33:41.608Z,47.93
2019-02-07T01:36:12.274Z,52.10
2019-02-07T01:38:44.887Z,50.73
2019-02-07T01:41:18.318Z,43.30
2019-02-07T01:43:48.387Z,41.40
2019-02-07T01:46:17.845Z,43.97
2019-02-07T01:48:49.289Z,44.37
2019-02-07T01:51:18.630Z,46.47
2019-02-07T01:53:51.273Z,49.60
2019-02-07T01:56:21.118Z,39.33
2019-02-07T01:58:53.066Z,35.70
2019-02-07T02:01:29.842Z,38.30
2019-02-07T02:03:59.458Z,43.70
2019-02-07T02:06:30.022Z,39.63
2019-02-07T02:08:59.326Z,51.20
2019-02-07T02:11:30.344Z,63.13
2019-02-07T02:14:02.427Z,84.90
2019-02-07T02:16:31.882Z,46.23
2019-02-07T02:19:02.477Z,51.37
2019-02-07T02:21:33.266Z,82.03
2019-02-07T02:24:02.882Z,66.87
2019-02-07T02:26:35.210Z,63.23
2019-02-07T02:29:06.114Z,46.57
2019-02-07T02:31:35.503Z,49.07
2019-02-07T02:34:07.658Z,50.93
2019-02-07T02:36:41.023Z,61.53
2019-02-07T02:39:10.606Z,47.00
2019-02-07T02:47:51.215Z,47.63
2019-02-07T02:50:21.511Z,48.77
2019-02-07T02:52:50.946Z,61.10
2019-02-07T02:55:33.439Z,50.87
2019-02-07T02:58:05.908Z,59.60
2019-02-07T03:00:53.125Z,85.70
2019-02-07T03:03:33.789Z,43.53
2019-02-07T03:06:42.103Z,49.27
2019-02-07T03:09:29.508Z,37.17
2019-02-07T03:12:16.503Z,45.37
2019-02-07T03:15:13.940Z,45.70
2019-02-07T03:18:05.381Z,38.13
2019-02-07T03:20:53.730Z,36.57
2019-02-07T03:23:51.291Z,37.73
2019-02-07T03:26:34.299Z,34.93
2019-02-07T03:29:31.001Z,40.10
2019-02-07T03:32:22.568Z,35.07
2019-02-07T03:35:16.890Z,39.40
2019-02-07T03:38:09.621Z,34.23
2019-02-07T03:41:06.813Z,42.30
2019-02-07T03:44:07.401Z,42.70
2019-02-07T03:46:54.644Z,32.30
2019-02-07T03:49:52.604Z,38.17
2019-02-07T03:52:32.688Z,31.60
2019-02-07T03:55:19.770Z,27.80
2019-02-07T03:58:09.984Z,31.47
2019-02-07T04:00:57.320Z,24.70
2019-02-07T04:03:47.383Z,27.77
2019-02-07T04:06:42.905Z,27.40
2019-02-07T04:09:29.848Z,26.20
2019-02-07T04:12:27.045Z,28.67
2019-02-07T04:15:19.603Z,24.10
2019-02-07T04:18:27.326Z,29.00
2019-02-07T04:21:11.629Z,23.80
2019-02-07T04:24:09.218Z,29.90
2019-02-07T04:27:03.572Z,27.37
2019-02-07T04:29:58.625Z,30.33
2019-02-07T04:32:52.947Z,31.50
2019-02-07T04:35:39.748Z,36.73
2019-02-07T04:38:46.594Z,40.47
2019-02-07T04:41:35.014Z,31.57
2019-02-07T04:44:24.291Z,37.93
2019-02-07T04:47:20.888Z,41.57
2019-02-07T04:50:18.123Z,33.00
2019-02-07T04:53:09.299Z,31.87
2019-02-07T04:55:56.429Z,34.37
2019-02-07T04:58:43.023Z,26.43
2019-02-07T05:01:49.318Z,17.13
2019-02-07T05:04:40.664Z,21.90
2019-02-07T05:07:25.264Z,16.77
2019-02-07T05:10:13.634Z,24.03
2019-02-07T05:13:11.156Z,33.03
2019-02-07T05:16:01.383Z,28.00
2019-02-07T05:19:00.302Z,30.17
2019-02-07T05:21:48.744Z,44.90
2019-02-07T05:24:40.198Z,47.47
2019-02-07T05:27:29.969Z,39.90
2019-02-07T05:30:14.715Z,13.37
2019-02-07T05:33:01.771Z,39.40
2019-02-07T05:35:49.825Z,54.60
2019-02-07T05:38:53.190Z,57.07
2019-02-07T05:41:46.186Z,45.00
2019-02-07T05:44:34.376Z,51.90
2019-02-07T05:47:35.057Z,39.80
2019-02-07T05:50:36.304Z,37.80
2019-02-07T05:53:23.216Z,34.27
2019-02-07T05:56:20.773Z,38.93
2019-02-07T05:59:06.343Z,35.90
2019-02-07T06:02:01.560Z,29.63
2019-02-07T06:04:48.666Z,35.80
2019-02-07T06:07:39.784Z,29.17
2019-02-07T06:10:28.029Z,39.00
2019-02-07T08:53:06.182Z,18.63
2019-02-07T08:56:03.890Z,21.13
2019-02-07T08:58:53.455Z,23.93
2019-02-07T09:01:40.821Z,21.97
2019-02-07T09:04:28.142Z,20.67
2019-02-07T09:07:11.559Z,21.53
2019-02-07T09:09:52.914Z,19.93
2019-02-07T09:12:38.209Z,25.43
2019-02-07T09:15:22.226Z,22.47
2019-02-07T09:18:13.515Z,20.93
2019-02-07T09:21:02.034Z,20.00
2019-02-07T09:23:52.906Z,23.70
2019-02-07T09:26:35.555Z,23.40
2019-02-07T09:29:25.714Z,23.90
2019-02-07T09:32:08.822Z,22.93
2019-02-07T09:35:00.674Z,23.83
2019-02-07T09:38:07.984Z,22.93
2019-02-07T09:41:01.552Z,23.47
2019-02-07T09:43:50.682Z,22.70
2019-02-07T09:46:48.705Z,25.83
2019-02-07T09:49:36.309Z,25.37
2019-02-07T09:52:31.422Z,27.97
2019-02-07T09:55:28.580Z,26.23
2019-02-07T09:58:15.560Z,25.83
2019-02-07T10:00:55.884Z,27.37
2019-02-07T10:03:47.230Z,28.43
2019-02-07T10:06:38.432Z,28.70
2019-02-07T10:09:18.650Z,28.80
2019-02-07T10:12:05.858Z,23.93
2019-02-07T10:14:53.014Z,24.20
2019-02-07T10:17:50.404Z,32.67
2019-02-07T10:20:39.278Z,26.53
2019-02-07T10:23:17.109Z,84.80
2019-02-07T10:26:05.621Z,45.53
2019-02-07T10:28:52.701Z,34.83
2019-02-07T10:31:50.305Z,29.27
2019-02-07T10:34:37.640Z,40.63
2019-02-07T10:37:24.770Z,37.77
2019-02-07T10:40:13.281Z,34.43
2019-02-07T10:43:00.393Z,31.77
2019-02-07T10:45:47.492Z,30.80
2019-02-07T10:48:51.149Z,34.30
2019-02-07T10:51:42.659Z,30.17
2019-02-07T10:54:30.020Z,42.47
2019-02-07T10:57:17.335Z,37.83
2019-02-07T11:00:11.642Z,33.07
2019-02-07T11:02:59.733Z,31.30
2019-02-07T11:05:46.856Z,37.43
2019-02-07T11:08:35.275Z,35.57
2019-02-07T11:11:22.798Z,28.03
2019-02-07T11:14:10.232Z,34.13
2019-02-07T11:17:03.852Z,29.20
2019-02-07T11:20:10.049Z,29.90
2019-02-07T11:23:04.318Z,37.70
2019-02-07T11:25:51.589Z,35.20
2019-02-07T11:28:43.095Z,33.97
2019-02-07T11:31:29.493Z,36.23
2019-02-07T11:34:27.166Z,34.17
2019-02-07T11:37:18.698Z,33.67
2019-02-07T11:40:13.134Z,33.27
2019-02-07T11:42:57.998Z,35.17
2019-02-07T11:45:37.778Z,35.50
2019-02-07T11:48:32.198Z,36.60
2019-02-07T11:51:33.368Z,32.73
2019-02-07T11:54:12.636Z,37.10
2019-02-07T11:57:07.206Z,32.10
2019-02-07T11:59:55.721Z,32.07
2019-02-07T12:02:47.294Z,34.60
2019-02-07T12:05:34.522Z,35.60
2019-02-07T12:08:22.978Z,36.67
2019-02-07T12:11:09.845Z,35.83
2019-02-07T12:14:16.707Z,32.10
2019-02-07T12:17:22.889Z,37.97
2019-02-07T12:20:20.931Z,38.60
2019-02-07T12:23:12.599Z,35.20
2019-02-07T12:26:11.048Z,33.23
2019-02-07T12:28:58.139Z,33.60
2019-02-07T12:31:55.920Z,36.20
2019-02-07T12:34:43.644Z,34.17
2019-02-07T12:37:34.488Z,36.60
2019-02-07T12:40:24.058Z,39.27
2019-02-07T12:43:10.993Z,40.03
2019-02-07T12:45:54.437Z,39.40
2019-02-07T12:48:42.973Z,40.57
2019-02-07T12:51:46.519Z,39.93
2019-02-07T12:54:33.701Z,38.40
2019-02-07T12:57:19.517Z,43.70
2019-02-07T13:00:04.525Z,47.57
2019-02-07T13:02:52.095Z,42.20
2019-02-07T13:05:42.384Z,41.90
2019-02-07T13:08:29.429Z,41.40
2019-02-07T13:11:20.985Z,40.17
2019-02-07T13:14:08.154Z,39.57
2019-02-07T13:16:55.291Z,41.30
2019-02-07T13:19:46.611Z,38.93
2019-02-07T13:22:43.247Z,37.00
2019-02-07T13:25:23.684Z,44.23
2019-02-07T13:28:18.783Z,38.97
2019-02-07T13:31:07.960Z,42.27
2019-02-07T13:33:51.562Z,39.47
2019-02-07T13:36:39.439Z,41.80
2019-02-07T13:39:27.291Z,41.97
2019-02-07T13:42:15.351Z,36.63
2019-02-07T13:44:56.397Z,41.13
2019-02-07T13:47:49.651Z,39.60
2019-02-07T13:50:47.573Z,45.57
2019-02-07T13:53:43.721Z,39.30
2019-02-07T13:56:41.804Z,40.90
2019-02-07T13:59:23.666Z,41.10
2019-02-07T14:02:21.674Z,41.93
2019-02-07T14:05:11.058Z,41.33
2019-02-07T14:08:04.799Z,46.83
2019-02-07T14:11:05.766Z,48.70
2019-02-07T14:13:54.911Z,40.23
2019-02-07T14:16:47.756Z,42.53
2019-02-07T14:19:36.791Z,39.90
2019-02-07T14:22:24.536Z,45.73
2019-02-07T14:25:12.084Z,47.63
2019-02-07T14:28:08.284Z,43.37
2019-02-07T14:31:09.198Z,42.23
2019-02-07T14:34:01.385Z,43.47
2019-02-07T14:36:41.584Z,45.23
2019-02-07T14:39:29.146Z,45.80
2019-02-07T14:42:16.018Z,51.50
2019-02-07T14:44:56.914Z,48.23
2019-02-07T14:47:26.976Z,50.60
2019-02-07T14:49:57.059Z,50.00
2019-02-07T14:52:27.182Z,44.33
2019-02-07T14:54:57.626Z,55.40
2019-02-07T14:57:27.829Z,50.83
2019-02-07T14:59:58.227Z,49.00
2019-02-07T15:02:28.359Z,46.00
2019-02-07T15:04:58.480Z,50.07
2019-02-07T15:07:28.604Z,51.63
2019-02-07T15:09:58.723Z,49.03
2019-02-07T15:12:29.941Z,49.27
2019-02-07T15:15:02.090Z,59.43
2019-02-07T15:17:32.215Z,52.50
2019-02-07T15:20:02.233Z,54.10
2019-02-07T15:22:32.243Z,55.00
2019-02-07T15:25:02.317Z,53.97
2019-02-07T15:27:32.535Z,48.47
2019-02-07T15:30:02.635Z,44.50
2019-02-07T15:32:32.745Z,53.10
2019-02-07T15:35:07.385Z,50.23
2019-02-07T15:37:37.579Z,50.23
2019-02-07T15:40:13.165Z,49.27
2019-02-07T15:42:43.305Z,46.23
2019-02-07T15:45:14.820Z,50.50
2019-02-07T15:47:45.327Z,53.70
2019-02-07T15:50:20.341Z,52.33
2019-02-07T15:52:53.452Z,52.53
2019-02-07T15:55:23.820Z,54.67
2019-02-07T15:57:54.227Z,48.23
2019-02-07T16:00:42.581Z,46.70
2019-02-07T16:03:31.734Z,58.67
2019-02-07T16:06:01.948Z,54.10
2019-02-07T16:08:32.175Z,47.13
2019-02-07T16:11:02.516Z,52.23
2019-02-07T16:13:32.758Z,49.07
2019-02-07T16:16:03.161Z,57.30
2019-02-07T16:18:33.337Z,58.73
2019-02-07T16:21:03.624Z,90.93
2019-02-07T16:23:34.006Z,92.93
2019-02-07T16:26:04.274Z,89.60
2019-02-07T16:28:34.529Z,75.80
2019-02-07T16:31:05.954Z,53.90
2019-02-07T16:33:36.205Z,52.33
2019-02-07T16:36:06.784Z,45.97
2019-02-07T16:38:36.920Z,44.03
2019-02-07T16:41:07.531Z,46.13
2019-02-07T16:43:37.797Z,48.87
2019-02-07T16:46:08.016Z,58.70
2019-02-07T16:48:38.221Z,58.90
2019-02-07T16:51:08.594Z,56.43
2019-02-07T16:53:39.003Z,52.93
2019-02-07T16:56:09.345Z,67.30
2019-02-07T16:58:39.661Z,65.70
2019-02-07T17:01:14.410Z,64.07
2019-02-07T17:03:44.591Z,53.20
2019-02-07T17:06:14.796Z,54.47
2019-02-07T17:08:46.618Z,101.00
2019-02-07T17:11:19.013Z,70.90
2019-02-07T17:13:49.295Z,67.13
2019-02-07T17:16:22.794Z,59.60
2019-02-07T17:18:57.133Z,53.83
2019-02-07T17:21:28.624Z,58.47
2019-02-07T17:24:04.475Z,54.77
2019-02-07T17:26:36.451Z,57.73
2019-02-07T17:29:08.649Z,57.33
2019-02-07T17:31:39.415Z,53.97
2019-02-07T17:34:10.187Z,59.83
2019-02-07T17:36:45.673Z,65.00
2019-02-07T17:39:17.818Z,67.00
2019-02-07T17:41:48.605Z,68.67
2019-02-07T17:44:19.453Z,99.40
2019-02-07T17:46:51.131Z,75.93
2019-02-07T17:49:21.708Z,66.13
2019-02-07T17:51:54.879Z,73.17
2019-02-07T17:54:31.661Z,62.00
2019-02-07T17:57:04.139Z,63.70
2019-02-07T17:59:38.857Z,63.13
2019-02-07T18:02:19.323Z,59.77
2019-02-07T18:04:51.255Z,67.20
2019-02-07T18:07:24.277Z,72.80
2019-02-07T18:09:55.660Z,69.17
2019-02-07T18:12:26.447Z,74.30
2019-02-07T18:14:57.978Z,74.93
2019-02-07T18:17:29.370Z,68.93
2019-02-07T18:20:04.119Z,77.23
2019-02-07T18:22:34.809Z,75.73
2019-02-07T18:25:08.945Z,62.80
2019-02-07T18:28:01.689Z,64.00
2019-02-07T18:30:37.273Z,57.03
2019-02-07T18:33:09.948Z,59.30
2019-02-07T18:35:42.418Z,59.43
2019-02-07T18:38:15.458Z,55.43
2019-02-07T18:40:47.506Z,54.87
2019-02-07T18:43:19.853Z,64.10
2019-02-07T18:45:56.599Z,74.33
2019-02-07T18:48:29.022Z,76.77
2019-02-07T18:50:56.460Z,57.77
2019-02-07T18:53:28.071Z,62.20
2019-02-07T18:56:02.862Z,65.73
2019-02-07T18:58:34.907Z,59.13
2019-02-07T19:01:06.469Z,64.27
2019-02-07T19:03:37.274Z,74.60
2019-02-07T19:06:08.537Z,70.07
2019-02-07T19:08:39.322Z,67.47
2019-02-07T19:11:12.477Z,69.83
2019-02-07T19:13:43.469Z,62.33
2019-02-07T19:16:19.997Z,62.83
2019-02-07T19:18:51.177Z,65.00
2019-02-07T19:21:23.501Z,66.60
2019-02-07T19:23:55.538Z,67.80
2019-02-07T19:26:29.082Z,67.77
2019-02-07T19:28:59.703Z,72.50
2019-02-07T19:31:31.902Z,70.30
2019-02-07T19:34:02.657Z,70.23
2019-02-07T19:36:36.361Z,64.93
2019-02-07T19:39:10.849Z,59.67
2019-02-07T19:41:41.419Z,65.57
2019-02-07T19:44:13.634Z,54.33
2019-02-07T19:46:44.385Z,50.53
2019-02-07T19:49:16.373Z,49.90
2019-02-07T19:51:46.860Z,54.20
2019-02-07T19:54:17.459Z,49.47
2019-02-07T19:56:48.244Z,60.90
2019-02-07T19:59:19.718Z,52.27
2019-02-07T20:01:51.022Z,68.20
2019-02-07T20:04:22.271Z,60.83
2019-02-07T20:06:53.878Z,48.63
2019-02-07T20:09:24.277Z,53.47
2019-02-07T20:11:54.852Z,53.53
2019-02-07T20:14:27.872Z,50.40
2019-02-07T20:16:58.938Z,46.67
2019-02-07T20:19:31.966Z,55.80
2019-02-07T20:22:07.552Z,49.83
2019-02-07T20:24:45.642Z,58.37
2019-02-07T20:27:10.582Z,53.60
2019-02-07T20:29:41.250Z,47.30
2019-02-07T20:32:12.083Z,60.87
2019-02-07T20:34:43.550Z,58.30
2019-02-07T20:37:14.434Z,57.60
2019-02-07T20:39:44.941Z,47.60
2019-02-07T20:42:19.240Z,52.77
2019-02-07T20:44:49.982Z,60.53
2019-02-07T20:47:20.392Z,54.17
2019-02-07T20:49:51.195Z,72.73
2019-02-07T20:52:27.185Z,68.37
2019-02-07T20:54:54.567Z,56.40
2019-02-07T20:57:25.291Z,50.37
2019-02-07T20:59:55.517Z,59.87
2019-02-07T21:02:25.159Z,67.20
2019-02-07T21:04:55.332Z,63.53
2019-02-07T21:07:25.445Z,71.47
2019-02-07T21:09:56.001Z,52.67
2019-02-07T21:12:25.563Z,51.40
2019-02-07T21:14:55.058Z,44.33
2019-02-07T21:17:24.627Z,31.30
2019-02-07T21:19:54.170Z,24.77
2019-02-07T21:22:24.030Z,23.13
2019-02-07T21:24:55.303Z,20.40
2019-02-07T21:27:24.812Z,21.10
2019-02-07T21:29:54.338Z,18.20
2019-02-07T21:32:23.886Z,17.37
2019-02-07T21:34:53.395Z,23.77
2019-02-07T21:37:25.066Z,19.50
2019-02-07T21:39:54.517Z,13.90
2019-02-07T21:42:24.037Z,11.13
2019-02-07T21:44:53.547Z,12.40
2019-02-07T21:47:23.054Z,13.60
2019-02-07T21:49:52.565Z,13.63
2019-02-07T21:52:22.067Z,10.50
2019-02-07T21:54:51.744Z,8.87
2019-02-07T21:57:21.251Z,9.83
2019-02-07T21:59:50.750Z,12.20
2019-02-07T22:02:20.290Z,26.07
2019-02-07T22:04:51.729Z,12.87
2019-02-07T22:07:22.592Z,16.20
2019-02-07T22:09:52.009Z,20.93
2019-02-07T22:12:21.535Z,20.53
2019-02-07T22:14:50.997Z,21.30
2019-02-07T22:17:20.437Z,22.10
2019-02-07T22:19:49.923Z,17.90
2019-02-07T22:22:21.313Z,20.33
2019-02-07T22:24:50.745Z,16.20
2019-02-07T22:27:20.191Z,23.97
2019-02-07T22:29:53.803Z,17.83
2019-02-07T22:32:23.221Z,24.23
2019-02-07T22:34:52.707Z,19.77
2019-02-07T22:37:25.422Z,35.10
2019-02-07T22:39:54.911Z,17.43
2019-02-07T22:42:24.265Z,11.27
2019-02-07T22:44:53.724Z,13.53
2019-02-07T22:47:23.116Z,10.37
2019-02-07T22:49:55.266Z,10.67
2019-02-07T22:52:27.642Z,9.50
2019-02-07T22:54:57.155Z,5.90
2019-02-07T22:57:27.628Z,5.30
2019-02-07T22:59:57.992Z,4.97
2019-02-07T23:02:27.404Z,8.53
2019-02-07T23:04:57.130Z,11.33
2019-02-07T23:07:26.516Z,7.83
2019-02-07T23:09:55.896Z,4.03
2019-02-07T23:12:25.296Z,9.97
2019-02-07T23:14:56.232Z,7.40
2019-02-07T23:17:25.622Z,6.20
2019-02-07T23:19:56.966Z,5.20
2019-02-07T23:22:26.447Z,7.20
2019-02-07T23:24:55.824Z,4.67
2019-02-07T23:27:25.222Z,6.97
2019-02-07T23:29:57.388Z,5.57
2019-02-07T23:32:26.788Z,4.70
2019-02-07T23:34:56.400Z,5.13
2019-02-07T23:37:25.834Z,4.17
2019-02-07T23:39:55.224Z,5.00
2019-02-07T23:42:29.703Z,3.60
2019-02-07T23:45:05.113Z,3.40
2019-02-07T23:47:34.978Z,3.73
2019-02-07T23:50:05.430Z,3.17
2019-02-07T23:52:34.864Z,4.27
2019-02-07T23:55:07.979Z,3.97
2019-02-07T23:57:38.556Z,4.90
